sensor_id;sensor_type;location;lat;lon;timestamp;P1;durP1;ratioP1;P2;durP2;ratioP2
14007;SDS011;61651;45.508;12.232;2023-09-19T00:00:58;14.18;;;12.25;;
14007;SDS011;61651;45.508;12.232;2023-09-19T00:04:00;17.38;;;11.27;;
14007;SDS011;61651;45.508;12.232;2023-09-19T00:07:03;18.83;;;12.18;;
14007;SDS011;61651;45.508;12.232;2023-09-19T00:10:05;16.20;;;13.20;;
14007;SDS011;61651;45.508;12.232;2023-09-19T00:13:11;20.10;;;13.20;;
14007;SDS011;61651;45.508;12.232;2023-09-19T00:16:13;16.35;;;13.35;;
14007;SDS011;61651;45.508;12.232;2023-09-19T00:19:15;18.00;;;14.52;;
14007;SDS011;61651;45.508;12.232;2023-09-19T00:22:17;17.73;;;15.35;;
14007;SDS011;61651;45.508;12.232;2023-09-19T00:25:20;18.83;;;14.75;;
14007;SDS011;61651;45.508;12.232;2023-09-19T00:28:23;15.55;;;13.88;;
14007;SDS011;61651;45.508;12.232;2023-09-19T00:31:26;21.02;;;14.00;;
14007;SDS011;61651;45.508;12.232;2023-09-19T00:34:30;18.25;;;12.50;;
14007;SDS011;61651;45.508;12.232;2023-09-19T00:37:34;19.23;;;12.30;;
14007;SDS011;61651;45.508;12.232;2023-09-19T00:40:36;15.30;;;11.35;;
14007;SDS011;61651;45.508;12.232;2023-09-19T00:43:39;15.63;;;11.98;;
14007;SDS011;61651;45.508;12.232;2023-09-19T00:46:41;15.63;;;11.43;;
14007;SDS011;61651;45.508;12.232;2023-09-19T00:49:44;12.60;;;11.10;;
14007;SDS011;61651;45.508;12.232;2023-09-19T00:52:50;15.02;;;11.95;;
14007;SDS011;61651;45.508;12.232;2023-09-19T00:55:56;15.68;;;11.60;;
14007;SDS011;61651;45.508;12.232;2023-09-19T00:58:59;16.10;;;11.93;;
14007;SDS011;61651;45.508;12.232;2023-09-19T01:02:02;18.08;;;12.70;;
14007;SDS011;61651;45.508;12.232;2023-09-19T01:05:05;23.45;;;13.60;;
14007;SDS011;61651;45.508;12.232;2023-09-19T01:08:07;17.58;;;12.25;;
14007;SDS011;61651;45.508;12.232;2023-09-19T01:11:12;19.58;;;12.07;;
14007;SDS011;61651;45.508;12.232;2023-09-19T01:14:28;17.90;;;11.73;;
14007;SDS011;61651;45.508;12.232;2023-09-19T01:17:34;15.27;;;10.63;;
14007;SDS011;61651;45.508;12.232;2023-09-19T01:20:45;17.00;;;10.23;;
14007;SDS011;61651;45.508;12.232;2023-09-19T01:27:49;15.27;;;9.10;;
14007;SDS011;61651;45.508;12.232;2023-09-19T01:31:10;21.45;;;9.27;;
14007;SDS011;61651;45.508;12.232;2023-09-19T01:34:13;19.35;;;8.70;;
14007;SDS011;61651;45.508;12.232;2023-09-19T01:37:15;13.68;;;9.40;;
14007;SDS011;61651;45.508;12.232;2023-09-19T01:40:20;14.95;;;9.00;;
14007;SDS011;61651;45.508;12.232;2023-09-19T01:43:26;15.48;;;9.65;;
14007;SDS011;61651;45.508;12.232;2023-09-19T01:46:35;15.82;;;10.07;;
14007;SDS011;61651;45.508;12.232;2023-09-19T01:49:42;12.38;;;9.25;;
14007;SDS011;61651;45.508;12.232;2023-09-19T01:52:51;16.35;;;9.23;;
14007;SDS011;61651;45.508;12.232;2023-09-19T01:56:00;16.92;;;8.88;;
14007;SDS011;61651;45.508;12.232;2023-09-19T01:59:11;15.85;;;9.05;;
14007;SDS011;61651;45.508;12.232;2023-09-19T02:02:18;13.43;;;9.40;;
14007;SDS011;61651;45.508;12.232;2023-09-19T02:05:23;17.85;;;9.90;;
14007;SDS011;61651;45.508;12.232;2023-09-19T02:08:25;16.08;;;9.20;;
14007;SDS011;61651;45.508;12.232;2023-09-19T02:11:27;15.63;;;9.75;;
14007;SDS011;61651;45.508;12.232;2023-09-19T02:14:29;16.73;;;9.45;;
14007;SDS011;61651;45.508;12.232;2023-09-19T02:17:33;17.95;;;9.68;;
14007;SDS011;61651;45.508;12.232;2023-09-19T02:20:35;19.55;;;9.90;;
14007;SDS011;61651;45.508;12.232;2023-09-19T02:23:37;12.10;;;9.13;;
14007;SDS011;61651;45.508;12.232;2023-09-19T02:26:39;15.60;;;9.32;;
14007;SDS011;61651;45.508;12.232;2023-09-19T02:29:41;12.73;;;8.82;;
14007;SDS011;61651;45.508;12.232;2023-09-19T02:32:45;17.48;;;9.55;;
14007;SDS011;61651;45.508;12.232;2023-09-19T02:35:49;16.05;;;10.25;;
14007;SDS011;61651;45.508;12.232;2023-09-19T02:38:57;13.55;;;10.98;;
14007;SDS011;61651;45.508;12.232;2023-09-19T02:41:59;16.50;;;9.40;;
14007;SDS011;61651;45.508;12.232;2023-09-19T02:45:01;16.27;;;9.10;;
14007;SDS011;61651;45.508;12.232;2023-09-19T02:48:05;14.20;;;9.65;;
14007;SDS011;61651;45.508;12.232;2023-09-19T02:51:07;13.13;;;9.57;;
14007;SDS011;61651;45.508;12.232;2023-09-19T02:54:09;16.17;;;10.18;;
14007;SDS011;61651;45.508;12.232;2023-09-19T02:57:11;32.45;;;10.07;;
14007;SDS011;61651;45.508;12.232;2023-09-19T03:00:17;13.50;;;9.40;;
14007;SDS011;61651;45.508;12.232;2023-09-19T03:03:23;16.50;;;9.82;;
14007;SDS011;61651;45.508;12.232;2023-09-19T03:06:25;15.80;;;10.27;;
14007;SDS011;61651;45.508;12.232;2023-09-19T03:09:27;20.70;;;11.93;;
14007;SDS011;61651;45.508;12.232;2023-09-19T03:12:29;112.72;;;15.60;;
14007;SDS011;61651;45.508;12.232;2023-09-19T03:15:31;15.48;;;10.65;;
14007;SDS011;61651;45.508;12.232;2023-09-19T03:18:35;26.45;;;11.63;;
14007;SDS011;61651;45.508;12.232;2023-09-19T03:21:38;20.38;;;10.68;;
14007;SDS011;61651;45.508;12.232;2023-09-19T03:24:40;13.88;;;9.80;;
14007;SDS011;61651;45.508;12.232;2023-09-19T03:27:43;17.30;;;9.75;;
14007;SDS011;61651;45.508;12.232;2023-09-19T03:30:45;13.75;;;10.07;;
14007;SDS011;61651;45.508;12.232;2023-09-19T03:33:49;13.40;;;9.52;;
14007;SDS011;61651;45.508;12.232;2023-09-19T03:36:51;22.13;;;10.45;;
14007;SDS011;61651;45.508;12.232;2023-09-19T03:39:53;15.98;;;9.90;;
14007;SDS011;61651;45.508;12.232;2023-09-19T03:42:55;14.50;;;9.57;;
14007;SDS011;61651;45.508;12.232;2023-09-19T03:46:00;14.02;;;9.55;;
14007;SDS011;61651;45.508;12.232;2023-09-19T03:49:05;14.23;;;9.77;;
14007;SDS011;61651;45.508;12.232;2023-09-19T03:52:08;14.93;;;9.90;;
14007;SDS011;61651;45.508;12.232;2023-09-19T03:55:10;17.50;;;10.52;;
14007;SDS011;61651;45.508;12.232;2023-09-19T03:58:12;14.52;;;10.30;;
14007;SDS011;61651;45.508;12.232;2023-09-19T04:01:14;17.90;;;9.20;;
14007;SDS011;61651;45.508;12.232;2023-09-19T04:04:18;11.35;;;9.55;;
14007;SDS011;61651;45.508;12.232;2023-09-19T04:07:20;14.82;;;10.20;;
14007;SDS011;61651;45.508;12.232;2023-09-19T04:10:22;13.13;;;8.85;;
14007;SDS011;61651;45.508;12.232;2023-09-19T04:13:25;13.50;;;9.13;;
14007;SDS011;61651;45.508;12.232;2023-09-19T04:16:28;13.98;;;8.45;;
14007;SDS011;61651;45.508;12.232;2023-09-19T04:19:31;17.33;;;9.18;;
14007;SDS011;61651;45.508;12.232;2023-09-19T04:22:33;13.70;;;8.63;;
14007;SDS011;61651;45.508;12.232;2023-09-19T04:25:35;14.43;;;8.98;;
14007;SDS011;61651;45.508;12.232;2023-09-19T04:28:38;14.50;;;8.88;;
14007;SDS011;61651;45.508;12.232;2023-09-19T04:31:40;12.05;;;8.00;;
14007;SDS011;61651;45.508;12.232;2023-09-19T04:34:47;15.52;;;8.40;;
14007;SDS011;61651;45.508;12.232;2023-09-19T04:37:50;14.30;;;9.23;;
14007;SDS011;61651;45.508;12.232;2023-09-19T04:40:56;15.60;;;9.55;;
14007;SDS011;61651;45.508;12.232;2023-09-19T04:43:59;14.13;;;8.55;;
14007;SDS011;61651;45.508;12.232;2023-09-19T04:47:01;16.17;;;10.13;;
14007;SDS011;61651;45.508;12.232;2023-09-19T04:50:05;16.25;;;9.80;;
14007;SDS011;61651;45.508;12.232;2023-09-19T04:53:11;14.10;;;9.20;;
14007;SDS011;61651;45.508;12.232;2023-09-19T04:56:13;16.20;;;11.23;;
14007;SDS011;61651;45.508;12.232;2023-09-19T04:59:15;17.02;;;11.18;;
14007;SDS011;61651;45.508;12.232;2023-09-19T05:02:17;14.73;;;10.85;;
14007;SDS011;61651;45.508;12.232;2023-09-19T05:05:20;14.75;;;9.73;;
14007;SDS011;61651;45.508;12.232;2023-09-19T05:08:23;16.45;;;9.85;;
14007;SDS011;61651;45.508;12.232;2023-09-19T05:11:25;17.92;;;9.63;;
14007;SDS011;61651;45.508;12.232;2023-09-19T05:14:29;11.88;;;9.15;;
14007;SDS011;61651;45.508;12.232;2023-09-19T05:17:31;13.75;;;9.48;;
14007;SDS011;61651;45.508;12.232;2023-09-19T05:20:35;13.77;;;8.68;;
14007;SDS011;61651;45.508;12.232;2023-09-19T05:23:39;14.55;;;10.13;;
14007;SDS011;61651;45.508;12.232;2023-09-19T05:26:41;14.05;;;10.15;;
14007;SDS011;61651;45.508;12.232;2023-09-19T05:29:43;15.50;;;10.45;;
14007;SDS011;61651;45.508;12.232;2023-09-19T05:32:45;15.45;;;11.43;;
14007;SDS011;61651;45.508;12.232;2023-09-19T05:35:49;17.10;;;10.32;;
14007;SDS011;61651;45.508;12.232;2023-09-19T05:38:50;20.05;;;12.55;;
14007;SDS011;61651;45.508;12.232;2023-09-19T05:41:53;15.02;;;12.02;;
14007;SDS011;61651;45.508;12.232;2023-09-19T05:44:55;16.77;;;12.27;;
14007;SDS011;61651;45.508;12.232;2023-09-19T05:48:05;20.50;;;12.52;;
14007;SDS011;61651;45.508;12.232;2023-09-19T05:51:10;18.25;;;13.75;;
14007;SDS011;61651;45.508;12.232;2023-09-19T05:54:12;19.05;;;13.80;;
14007;SDS011;61651;45.508;12.232;2023-09-19T05:57:15;19.98;;;13.80;;
14007;SDS011;61651;45.508;12.232;2023-09-19T06:00:17;16.83;;;14.48;;
14007;SDS011;61651;45.508;12.232;2023-09-19T06:03:22;20.45;;;14.48;;
14007;SDS011;61651;45.508;12.232;2023-09-19T06:06:25;20.10;;;13.45;;
14007;SDS011;61651;45.508;12.232;2023-09-19T06:09:27;14.90;;;13.38;;
14007;SDS011;61651;45.508;12.232;2023-09-19T06:12:32;18.33;;;13.77;;
14007;SDS011;61651;45.508;12.232;2023-09-19T06:15:37;17.95;;;14.23;;
14007;SDS011;61651;45.508;12.232;2023-09-19T06:18:40;21.40;;;13.57;;
14007;SDS011;61651;45.508;12.232;2023-09-19T06:21:43;19.17;;;13.70;;
14007;SDS011;61651;45.508;12.232;2023-09-19T06:24:46;16.42;;;13.65;;
14007;SDS011;61651;45.508;12.232;2023-09-19T06:27:48;21.30;;;13.82;;
14007;SDS011;61651;45.508;12.232;2023-09-19T06:30:52;20.75;;;14.73;;
14007;SDS011;61651;45.508;12.232;2023-09-19T06:33:54;21.27;;;14.73;;
14007;SDS011;61651;45.508;12.232;2023-09-19T06:36:57;15.52;;;13.60;;
14007;SDS011;61651;45.508;12.232;2023-09-19T06:39:59;22.50;;;15.00;;
14007;SDS011;61651;45.508;12.232;2023-09-19T06:43:03;20.73;;;15.15;;
14007;SDS011;61651;45.508;12.232;2023-09-19T06:46:07;17.65;;;14.85;;
14007;SDS011;61651;45.508;12.232;2023-09-19T06:49:11;15.32;;;13.70;;
14007;SDS011;61651;45.508;12.232;2023-09-19T06:52:15;22.52;;;16.35;;
14007;SDS011;61651;45.508;12.232;2023-09-19T06:55:17;21.27;;;15.80;;
14007;SDS011;61651;45.508;12.232;2023-09-19T06:58:20;18.90;;;14.93;;
14007;SDS011;61651;45.508;12.232;2023-09-19T07:01:22;18.38;;;16.48;;
14007;SDS011;61651;45.508;12.232;2023-09-19T07:04:25;22.70;;;15.75;;
14007;SDS011;61651;45.508;12.232;2023-09-19T07:07:30;18.27;;;15.02;;
14007;SDS011;61651;45.508;12.232;2023-09-19T07:10:35;19.70;;;15.32;;
14007;SDS011;61651;45.508;12.232;2023-09-19T07:13:37;19.08;;;15.65;;
14007;SDS011;61651;45.508;12.232;2023-09-19T07:16:39;21.88;;;16.55;;
14007;SDS011;61651;45.508;12.232;2023-09-19T07:19:45;18.73;;;15.43;;
14007;SDS011;61651;45.508;12.232;2023-09-19T07:22:50;16.52;;;14.45;;
14007;SDS011;61651;45.508;12.232;2023-09-19T07:25:52;21.65;;;13.95;;
14007;SDS011;61651;45.508;12.232;2023-09-19T07:28:58;17.83;;;13.00;;
14007;SDS011;61651;45.508;12.232;2023-09-19T07:32:02;17.20;;;13.93;;
14007;SDS011;61651;45.508;12.232;2023-09-19T07:35:06;19.55;;;13.60;;
14007;SDS011;61651;45.508;12.232;2023-09-19T07:38:10;17.75;;;13.68;;
14007;SDS011;61651;45.508;12.232;2023-09-19T07:41:12;17.88;;;13.10;;
14007;SDS011;61651;45.508;12.232;2023-09-19T07:44:14;19.42;;;13.70;;
14007;SDS011;61651;45.508;12.232;2023-09-19T07:47:17;16.42;;;12.95;;
14007;SDS011;61651;45.508;12.232;2023-09-19T07:50:19;16.70;;;12.27;;
14007;SDS011;61651;45.508;12.232;2023-09-19T07:53:23;17.08;;;11.88;;
14007;SDS011;61651;45.508;12.232;2023-09-19T07:56:25;18.98;;;12.13;;
14007;SDS011;61651;45.508;12.232;2023-09-19T07:59:28;12.95;;;11.70;;
14007;SDS011;61651;45.508;12.232;2023-09-19T08:02:30;14.68;;;11.32;;
14007;SDS011;61651;45.508;12.232;2023-09-19T08:05:39;16.30;;;13.38;;
14007;SDS011;61651;45.508;12.232;2023-09-19T08:08:45;16.83;;;12.35;;
14007;SDS011;61651;45.508;12.232;2023-09-19T08:11:51;15.48;;;11.65;;
14007;SDS011;61651;45.508;12.232;2023-09-19T08:14:53;12.00;;;10.75;;
14007;SDS011;61651;45.508;12.232;2023-09-19T08:17:56;19.13;;;13.15;;
14007;SDS011;61651;45.508;12.232;2023-09-19T08:20:58;17.40;;;11.32;;
14007;SDS011;61651;45.508;12.232;2023-09-19T08:24:03;16.23;;;11.90;;
14007;SDS011;61651;45.508;12.232;2023-09-19T08:27:05;15.52;;;12.07;;
14007;SDS011;61651;45.508;12.232;2023-09-19T08:30:11;15.82;;;14.20;;
14007;SDS011;61651;45.508;12.232;2023-09-19T08:33:13;14.02;;;12.60;;
14007;SDS011;61651;45.508;12.232;2023-09-19T08:36:16;14.13;;;12.65;;
14007;SDS011;61651;45.508;12.232;2023-09-19T08:39:20;17.75;;;15.85;;
14007;SDS011;61651;45.508;12.232;2023-09-19T08:42:23;14.32;;;12.82;;
14007;SDS011;61651;45.508;12.232;2023-09-19T08:45:25;14.10;;;11.40;;
14007;SDS011;61651;45.508;12.232;2023-09-19T08:48:28;22.08;;;12.35;;
14007;SDS011;61651;45.508;12.232;2023-09-19T08:51:33;17.42;;;13.55;;
14007;SDS011;61651;45.508;12.232;2023-09-19T08:54:45;17.92;;;13.50;;
14007;SDS011;61651;45.508;12.232;2023-09-19T08:57:50;14.65;;;13.13;;
14007;SDS011;61651;45.508;12.232;2023-09-19T09:00:54;18.27;;;12.65;;
14007;SDS011;61651;45.508;12.232;2023-09-19T09:04:01;17.98;;;13.35;;
14007;SDS011;61651;45.508;12.232;2023-09-19T09:07:05;17.08;;;12.38;;
14007;SDS011;61651;45.508;12.232;2023-09-19T09:10:15;15.30;;;11.32;;
14007;SDS011;61651;45.508;12.232;2023-09-19T09:13:17;15.50;;;10.60;;
14007;SDS011;61651;45.508;12.232;2023-09-19T09:16:22;12.38;;;10.35;;
14007;SDS011;61651;45.508;12.232;2023-09-19T09:19:26;14.02;;;10.60;;
14007;SDS011;61651;45.508;12.232;2023-09-19T09:22:28;11.23;;;9.80;;
14007;SDS011;61651;45.508;12.232;2023-09-19T09:28:50;9.43;;;8.25;;
14007;SDS011;61651;45.508;12.232;2023-09-19T09:31:54;8.93;;;8.10;;
14007;SDS011;61651;45.508;12.232;2023-09-19T09:34:56;11.93;;;8.27;;
14007;SDS011;61651;45.508;12.232;2023-09-19T09:37:59;10.32;;;8.25;;
14007;SDS011;61651;45.508;12.232;2023-09-19T09:41:08;15.20;;;8.35;;
14007;SDS011;61651;45.508;12.232;2023-09-19T09:44:16;12.38;;;9.88;;
14007;SDS011;61651;45.508;12.232;2023-09-19T09:47:22;12.40;;;9.63;;
14007;SDS011;61651;45.508;12.232;2023-09-19T09:50:50;13.57;;;9.27;;
14007;SDS011;61651;45.508;12.232;2023-09-19T09:54:08;12.02;;;8.60;;
14007;SDS011;61651;45.508;12.232;2023-09-19T09:57:14;16.63;;;9.80;;
14007;SDS011;61651;45.508;12.232;2023-09-19T10:00:17;13.25;;;9.30;;
14007;SDS011;61651;45.508;12.232;2023-09-19T10:03:20;12.77;;;9.00;;
14007;SDS011;61651;45.508;12.232;2023-09-19T10:06:23;9.77;;;8.77;;
14007;SDS011;61651;45.508;12.232;2023-09-19T10:09:28;12.38;;;10.95;;
14007;SDS011;61651;45.508;12.232;2023-09-19T10:12:41;13.75;;;9.90;;
14007;SDS011;61651;45.508;12.232;2023-09-19T10:15:47;12.00;;;8.45;;
14007;SDS011;61651;45.508;12.232;2023-09-19T10:18:51;11.68;;;8.73;;
14007;SDS011;61651;45.508;12.232;2023-09-19T10:21:58;14.73;;;9.13;;
14007;SDS011;61651;45.508;12.232;2023-09-19T10:25:03;11.82;;;8.35;;
14007;SDS011;61651;45.508;12.232;2023-09-19T10:28:09;12.40;;;8.18;;
14007;SDS011;61651;45.508;12.232;2023-09-19T10:31:13;14.10;;;8.63;;
14007;SDS011;61651;45.508;12.232;2023-09-19T10:34:21;9.50;;;7.63;;
14007;SDS011;61651;45.508;12.232;2023-09-19T10:37:24;10.80;;;8.27;;
14007;SDS011;61651;45.508;12.232;2023-09-19T10:40:32;11.00;;;7.95;;
14007;SDS011;61651;45.508;12.232;2023-09-19T10:43:37;10.98;;;6.45;;
14007;SDS011;61651;45.508;12.232;2023-09-19T10:46:44;10.45;;;7.32;;
14007;SDS011;61651;45.508;12.232;2023-09-19T10:49:48;9.75;;;7.22;;
14007;SDS011;61651;45.508;12.232;2023-09-19T10:52:50;10.93;;;7.47;;
14007;SDS011;61651;45.508;12.232;2023-09-19T10:56:01;10.38;;;6.95;;
14007;SDS011;61651;45.508;12.232;2023-09-19T10:59:12;7.32;;;6.45;;
14007;SDS011;61651;45.508;12.232;2023-09-19T11:02:18;9.05;;;5.90;;
14007;SDS011;61651;45.508;12.232;2023-09-19T11:05:20;9.27;;;5.63;;
14007;SDS011;61651;45.508;12.232;2023-09-19T11:08:23;10.95;;;6.25;;
14007;SDS011;61651;45.508;12.232;2023-09-19T11:11:41;8.90;;;6.20;;
14007;SDS011;61651;45.508;12.232;2023-09-19T11:14:47;11.70;;;6.38;;
14007;SDS011;61651;45.508;12.232;2023-09-19T11:17:49;12.13;;;6.65;;
14007;SDS011;61651;45.508;12.232;2023-09-19T11:20:54;7.68;;;6.75;;
14007;SDS011;61651;45.508;12.232;2023-09-19T11:24:33;7.07;;;5.63;;
14007;SDS011;61651;45.508;12.232;2023-09-19T11:27:44;9.57;;;5.68;;
14007;SDS011;61651;45.508;12.232;2023-09-19T11:31:42;9.27;;;6.80;;
14007;SDS011;61651;45.508;12.232;2023-09-19T11:34:48;10.73;;;6.85;;
14007;SDS011;61651;45.508;12.232;2023-09-19T11:38:00;10.73;;;6.40;;
14007;SDS011;61651;45.508;12.232;2023-09-19T11:44:40;11.20;;;5.82;;
14007;SDS011;61651;45.508;12.232;2023-09-19T11:47:44;10.32;;;5.82;;
14007;SDS011;61651;45.508;12.232;2023-09-19T11:50:47;9.50;;;6.00;;
14007;SDS011;61651;45.508;12.232;2023-09-19T11:53:51;12.88;;;5.40;;
14007;SDS011;61651;45.508;12.232;2023-09-19T11:56:54;9.85;;;6.07;;
14007;SDS011;61651;45.508;12.232;2023-09-19T11:59:57;10.80;;;5.63;;
14007;SDS011;61651;45.508;12.232;2023-09-19T12:03:02;9.25;;;5.75;;
14007;SDS011;61651;45.508;12.232;2023-09-19T12:06:12;8.63;;;5.32;;
14007;SDS011;61651;45.508;12.232;2023-09-19T12:09:15;10.15;;;5.40;;
14007;SDS011;61651;45.508;12.232;2023-09-19T12:12:21;8.75;;;4.35;;
14007;SDS011;61651;45.508;12.232;2023-09-19T12:15:27;9.45;;;5.00;;
14007;SDS011;61651;45.508;12.232;2023-09-19T12:18:36;11.18;;;5.22;;
14007;SDS011;61651;45.508;12.232;2023-09-19T12:21:38;12.98;;;4.95;;
14007;SDS011;61651;45.508;12.232;2023-09-19T12:24:40;9.35;;;4.80;;
14007;SDS011;61651;45.508;12.232;2023-09-19T12:27:44;8.45;;;4.90;;
14007;SDS011;61651;45.508;12.232;2023-09-19T12:30:49;10.77;;;4.05;;
14007;SDS011;61651;45.508;12.232;2023-09-19T12:33:57;7.60;;;3.70;;
14007;SDS011;61651;45.508;12.232;2023-09-19T12:37:04;10.93;;;4.13;;
14007;SDS011;61651;45.508;12.232;2023-09-19T12:40:15;7.10;;;4.00;;
14007;SDS011;61651;45.508;12.232;2023-09-19T12:43:18;7.50;;;3.15;;
14007;SDS011;61651;45.508;12.232;2023-09-19T12:46:20;9.02;;;4.18;;
14007;SDS011;61651;45.508;12.232;2023-09-19T12:49:26;10.48;;;4.30;;
14007;SDS011;61651;45.508;12.232;2023-09-19T12:52:33;6.03;;;3.88;;
14007;SDS011;61651;45.508;12.232;2023-09-19T12:55:37;8.13;;;3.97;;
14007;SDS011;61651;45.508;12.232;2023-09-19T12:58:49;9.43;;;4.28;;
14007;SDS011;61651;45.508;12.232;2023-09-19T13:01:54;11.70;;;4.32;;
14007;SDS011;61651;45.508;12.232;2023-09-19T13:05:07;8.45;;;4.32;;
14007;SDS011;61651;45.508;12.232;2023-09-19T13:08:17;9.55;;;4.47;;
14007;SDS011;61651;45.508;12.232;2023-09-19T13:11:20;7.00;;;4.18;;
14007;SDS011;61651;45.508;12.232;2023-09-19T13:14:22;6.70;;;3.67;;
14007;SDS011;61651;45.508;12.232;2023-09-19T13:17:42;10.57;;;3.50;;
14007;SDS011;61651;45.508;12.232;2023-09-19T13:20:53;6.28;;;3.10;;
14007;SDS011;61651;45.508;12.232;2023-09-19T13:24:20;9.25;;;3.55;;
14007;SDS011;61651;45.508;12.232;2023-09-19T13:27:27;10.25;;;4.00;;
14007;SDS011;61651;45.508;12.232;2023-09-19T13:30:29;10.10;;;4.30;;
14007;SDS011;61651;45.508;12.232;2023-09-19T13:33:32;7.25;;;3.83;;
14007;SDS011;61651;45.508;12.232;2023-09-19T13:36:37;7.97;;;4.78;;
14007;SDS011;61651;45.508;12.232;2023-09-19T13:39:39;10.70;;;4.95;;
14007;SDS011;61651;45.508;12.232;2023-09-19T13:42:47;8.02;;;3.58;;
14007;SDS011;61651;45.508;12.232;2023-09-19T13:45:53;8.45;;;4.50;;
14007;SDS011;61651;45.508;12.232;2023-09-19T13:48:57;15.85;;;4.57;;
14007;SDS011;61651;45.508;12.232;2023-09-19T13:52:01;6.68;;;3.80;;
14007;SDS011;61651;45.508;12.232;2023-09-19T13:55:05;9.57;;;3.70;;
14007;SDS011;61651;45.508;12.232;2023-09-19T13:58:08;5.70;;;3.88;;
14007;SDS011;61651;45.508;12.232;2023-09-19T14:01:11;5.75;;;3.72;;
14007;SDS011;61651;45.508;12.232;2023-09-19T14:04:13;18.10;;;4.38;;
14007;SDS011;61651;45.508;12.232;2023-09-19T14:07:17;10.05;;;3.90;;
14007;SDS011;61651;45.508;12.232;2023-09-19T14:10:20;10.55;;;3.92;;
14007;SDS011;61651;45.508;12.232;2023-09-19T14:13:22;8.68;;;3.85;;
14007;SDS011;61651;45.508;12.232;2023-09-19T14:16:25;7.10;;;3.83;;
14007;SDS011;61651;45.508;12.232;2023-09-19T14:19:30;9.07;;;3.83;;
14007;SDS011;61651;45.508;12.232;2023-09-19T14:22:33;8.35;;;4.15;;
14007;SDS011;61651;45.508;12.232;2023-09-19T14:25:36;11.45;;;4.03;;
14007;SDS011;61651;45.508;12.232;2023-09-19T14:28:39;8.23;;;4.25;;
14007;SDS011;61651;45.508;12.232;2023-09-19T14:31:41;9.80;;;3.78;;
14007;SDS011;61651;45.508;12.232;2023-09-19T14:34:43;11.07;;;5.05;;
14007;SDS011;61651;45.508;12.232;2023-09-19T14:37:47;5.28;;;3.58;;
14007;SDS011;61651;45.508;12.232;2023-09-19T14:40:52;7.93;;;3.60;;
14007;SDS011;61651;45.508;12.232;2023-09-19T14:44:02;8.15;;;3.47;;
14007;SDS011;61651;45.508;12.232;2023-09-19T14:47:05;6.53;;;3.15;;
14007;SDS011;61651;45.508;12.232;2023-09-19T14:50:07;8.05;;;3.83;;
14007;SDS011;61651;45.508;12.232;2023-09-19T14:53:12;5.97;;;3.65;;
14007;SDS011;61651;45.508;12.232;2023-09-19T14:56:14;8.30;;;3.97;;
14007;SDS011;61651;45.508;12.232;2023-09-19T14:59:18;6.80;;;4.07;;
14007;SDS011;61651;45.508;12.232;2023-09-19T15:02:20;9.18;;;4.25;;
14007;SDS011;61651;45.508;12.232;2023-09-19T15:05:22;8.27;;;4.20;;
14007;SDS011;61651;45.508;12.232;2023-09-19T15:08:26;6.68;;;3.97;;
14007;SDS011;61651;45.508;12.232;2023-09-19T15:11:28;9.90;;;4.18;;
14007;SDS011;61651;45.508;12.232;2023-09-19T15:14:30;6.60;;;4.90;;
14007;SDS011;61651;45.508;12.232;2023-09-19T15:17:31;7.25;;;3.92;;
14007;SDS011;61651;45.508;12.232;2023-09-19T15:20:33;7.20;;;4.05;;
14007;SDS011;61651;45.508;12.232;2023-09-19T15:23:38;11.07;;;5.57;;
14007;SDS011;61651;45.508;12.232;2023-09-19T15:26:41;15.60;;;5.72;;
14007;SDS011;61651;45.508;12.232;2023-09-19T15:29:44;13.68;;;5.85;;
14007;SDS011;61651;45.508;12.232;2023-09-19T15:32:45;9.32;;;4.97;;
14007;SDS011;61651;45.508;12.232;2023-09-19T15:35:49;13.98;;;5.05;;
14007;SDS011;61651;45.508;12.232;2023-09-19T15:38:56;9.10;;;3.58;;
14007;SDS011;61651;45.508;12.232;2023-09-19T15:42:00;12.52;;;3.60;;
14007;SDS011;61651;45.508;12.232;2023-09-19T15:45:02;8.27;;;4.38;;
14007;SDS011;61651;45.508;12.232;2023-09-19T15:48:05;7.45;;;4.32;;
14007;SDS011;61651;45.508;12.232;2023-09-19T15:51:07;5.60;;;2.90;;
14007;SDS011;61651;45.508;12.232;2023-09-19T15:54:13;7.18;;;3.13;;
14007;SDS011;61651;45.508;12.232;2023-09-19T15:57:16;10.05;;;3.20;;
14007;SDS011;61651;45.508;12.232;2023-09-19T16:00:17;5.50;;;2.22;;
14007;SDS011;61651;45.508;12.232;2023-09-19T16:03:19;8.75;;;2.60;;
14007;SDS011;61651;45.508;12.232;2023-09-19T16:06:22;2.92;;;2.15;;
14007;SDS011;61651;45.508;12.232;2023-09-19T16:09:27;4.18;;;2.10;;
14007;SDS011;61651;45.508;12.232;2023-09-19T16:12:29;2.63;;;2.08;;
14007;SDS011;61651;45.508;12.232;2023-09-19T16:15:32;2.83;;;1.90;;
14007;SDS011;61651;45.508;12.232;2023-09-19T16:18:34;3.95;;;2.00;;
14007;SDS011;61651;45.508;12.232;2023-09-19T16:21:36;3.83;;;2.00;;
14007;SDS011;61651;45.508;12.232;2023-09-19T16:24:41;2.28;;;1.70;;
14007;SDS011;61651;45.508;12.232;2023-09-19T16:27:44;2.72;;;1.80;;
14007;SDS011;61651;45.508;12.232;2023-09-19T16:30:47;4.30;;;1.70;;
14007;SDS011;61651;45.508;12.232;2023-09-19T16:33:49;3.03;;;1.90;;
14007;SDS011;61651;45.508;12.232;2023-09-19T16:36:51;3.40;;;2.10;;
14007;SDS011;61651;45.508;12.232;2023-09-19T16:39:54;3.90;;;1.90;;
14007;SDS011;61651;45.508;12.232;2023-09-19T16:42:56;3.67;;;1.70;;
14007;SDS011;61651;45.508;12.232;2023-09-19T16:45:58;7.00;;;2.33;;
14007;SDS011;61651;45.508;12.232;2023-09-19T16:49:01;5.43;;;2.20;;
14007;SDS011;61651;45.508;12.232;2023-09-19T16:52:05;2.38;;;1.70;;
14007;SDS011;61651;45.508;12.232;2023-09-19T16:55:09;4.50;;;1.98;;
14007;SDS011;61651;45.508;12.232;2023-09-19T16:58:11;4.20;;;2.40;;
14007;SDS011;61651;45.508;12.232;2023-09-19T17:01:13;6.43;;;2.28;;
14007;SDS011;61651;45.508;12.232;2023-09-19T17:04:16;3.50;;;2.38;;
14007;SDS011;61651;45.508;12.232;2023-09-19T17:07:18;3.53;;;2.17;;
14007;SDS011;61651;45.508;12.232;2023-09-19T17:10:21;4.80;;;2.78;;
14007;SDS011;61651;45.508;12.232;2023-09-19T17:13:23;6.32;;;2.60;;
14007;SDS011;61651;45.508;12.232;2023-09-19T17:16:26;4.20;;;2.28;;
14007;SDS011;61651;45.508;12.232;2023-09-19T17:19:29;7.20;;;2.40;;
14007;SDS011;61651;45.508;12.232;2023-09-19T17:22:31;5.28;;;3.15;;
14007;SDS011;61651;45.508;12.232;2023-09-19T17:25:35;4.25;;;2.53;;
14007;SDS011;61651;45.508;12.232;2023-09-19T17:28:37;4.63;;;2.50;;
14007;SDS011;61651;45.508;12.232;2023-09-19T17:31:40;6.72;;;2.80;;
14007;SDS011;61651;45.508;12.232;2023-09-19T17:34:42;4.20;;;2.63;;
14007;SDS011;61651;45.508;12.232;2023-09-19T17:37:44;6.85;;;3.30;;
14007;SDS011;61651;45.508;12.232;2023-09-19T17:40:47;3.63;;;2.83;;
14007;SDS011;61651;45.508;12.232;2023-09-19T17:43:53;8.23;;;3.00;;
14007;SDS011;61651;45.508;12.232;2023-09-19T17:46:56;6.45;;;3.13;;
14007;SDS011;61651;45.508;12.232;2023-09-19T17:49:58;6.85;;;2.90;;
14007;SDS011;61651;45.508;12.232;2023-09-19T17:53:01;5.22;;;2.85;;
14007;SDS011;61651;45.508;12.232;2023-09-19T17:56:04;4.97;;;3.10;;
14007;SDS011;61651;45.508;12.232;2023-09-19T17:59:09;6.35;;;3.40;;
14007;SDS011;61651;45.508;12.232;2023-09-19T18:02:12;5.07;;;3.22;;
14007;SDS011;61651;45.508;12.232;2023-09-19T18:05:14;6.15;;;2.97;;
14007;SDS011;61651;45.508;12.232;2023-09-19T18:08:16;6.90;;;3.55;;